sensor_id;sensor_type;location;lat;lon;timestamp;pressure;altitude;pressure_sealevel;temperature;humidity
37852;BME280;23691;52.486;4.650;2023-02-21T00:02:12;101987.72;;;9.18;93.67
37852;BME280;23691;52.486;4.650;2023-02-21T00:04:56;101996.56;;;9.19;93.66
37852;BME280;23691;52.486;4.650;2023-02-21T00:07:40;102001.06;;;9.18;93.89
37852;BME280;23691;52.486;4.650;2023-02-21T00:10:25;102003.75;;;9.18;93.77
37852;BME280;23691;52.486;4.650;2023-02-21T00:13:09;102003.75;;;9.18;93.55
37852;BME280;23691;52.486;4.650;2023-02-21T00:15:56;102011.03;;;9.16;93.96
37852;BME280;23691;52.486;4.650;2023-02-21T00:18:40;102021.44;;;9.19;93.61
37852;BME280;23691;52.486;4.650;2023-02-21T00:21:27;102009.66;;;9.22;93.61
37852;BME280;23691;52.486;4.650;2023-02-21T00:24:13;102020.47;;;9.20;93.61
37852;BME280;23691;52.486;4.650;2023-02-21T00:26:58;102013.06;;;9.24;93.67
37852;BME280;23691;52.486;4.650;2023-02-21T00:29:42;102016.44;;;9.26;93.77
37852;BME280;23691;52.486;4.650;2023-02-21T00:32:26;102007.59;;;9.26;93.05
37852;BME280;23691;52.486;4.650;2023-02-21T00:35:10;102003.22;;;9.24;93.73
37852;BME280;23691;52.486;4.650;2023-02-21T00:37:54;102013.78;;;9.26;93.50
37852;BME280;23691;52.486;4.650;2023-02-21T00:40:37;102013.63;;;9.28;93.80
37852;BME280;23691;52.486;4.650;2023-02-21T00:43:27;102013.53;;;9.29;93.71
37852;BME280;23691;52.486;4.650;2023-02-21T00:46:12;102012.53;;;9.30;93.66
37852;BME280;23691;52.486;4.650;2023-02-21T00:48:56;102020.69;;;9.29;93.81
37852;BME280;23691;52.486;4.650;2023-02-21T00:51:39;102025.78;;;9.32;93.69
37852;BME280;23691;52.486;4.650;2023-02-21T00:54:23;102016.78;;;9.33;93.67
37852;BME280;23691;52.486;4.650;2023-02-21T00:57:10;102015.81;;;9.34;93.44
37852;BME280;23691;52.486;4.650;2023-02-21T00:59:54;102015.81;;;9.34;93.56
37852;BME280;23691;52.486;4.650;2023-02-21T01:02:38;102009.75;;;9.32;93.28
37852;BME280;23691;52.486;4.650;2023-02-21T01:05:22;102010.72;;;9.31;93.27
37852;BME280;23691;52.486;4.650;2023-02-21T01:08:06;102005.78;;;9.26;93.04
37852;BME280;23691;52.486;4.650;2023-02-21T01:10:50;102001.28;;;9.27;93.03
37852;BME280;23691;52.486;4.650;2023-02-21T01:13:37;101998.03;;;9.23;93.19
37852;BME280;23691;52.486;4.650;2023-02-21T01:16:21;101984.41;;;9.26;93.45
37852;BME280;23691;52.486;4.650;2023-02-21T01:19:05;101994.81;;;9.29;93.44
37852;BME280;23691;52.486;4.650;2023-02-21T01:21:49;101996.50;;;9.30;93.30
37852;BME280;23691;52.486;4.650;2023-02-21T01:24:32;101987.66;;;9.30;93.38
37852;BME280;23691;52.486;4.650;2023-02-21T01:27:16;101991.44;;;9.27;93.44
37852;BME280;23691;52.486;4.650;2023-02-21T01:30:00;101987.81;;;9.28;93.43
37852;BME280;23691;52.486;4.650;2023-02-21T01:32:44;101980.75;;;9.27;93.37
37852;BME280;23691;52.486;4.650;2023-02-21T01:35:28;101984.88;;;9.31;93.43
37852;BME280;23691;52.486;4.650;2023-02-21T01:38:12;101985.59;;;9.33;93.39
37852;BME280;23691;52.486;4.650;2023-02-21T01:40:56;101987.38;;;9.33;93.29
37852;BME280;23691;52.486;4.650;2023-02-21T01:43:56;101987.28;;;9.34;93.43
37852;BME280;23691;52.486;4.650;2023-02-21T01:46:40;101986.56;;;9.32;93.14
37852;BME280;23691;52.486;4.650;2023-02-21T01:49:24;101984.72;;;9.33;93.36
37852;BME280;23691;52.486;4.650;2023-02-21T01:52:08;101975.03;;;9.32;93.22
37852;BME280;23691;52.486;4.650;2023-02-21T01:54:53;101975.88;;;9.32;93.24
37852;BME280;23691;52.486;4.650;2023-02-21T01:57:39;101974.31;;;9.30;93.19
37852;BME280;23691;52.486;4.650;2023-02-21T02:00:23;101976.97;;;9.30;93.29
37852;BME280;23691;52.486;4.650;2023-02-21T02:03:10;101979.78;;;9.28;93.42
37852;BME280;23691;52.486;4.650;2023-02-21T02:05:57;101970.91;;;9.28;93.32
37852;BME280;23691;52.486;4.650;2023-02-21T02:08:42;101973.56;;;9.28;93.51
37852;BME280;23691;52.486;4.650;2023-02-21T02:35:12;101954.84;;;9.39;93.31
37852;BME280;23691;52.486;4.650;2023-02-21T02:43:21;101947.66;;;9.39;93.38
37852;BME280;23691;52.486;4.650;2023-02-21T02:46:09;101947.66;;;9.39;93.40
37852;BME280;23691;52.486;4.650;2023-02-21T02:48:38;101950.59;;;9.36;93.71
37852;BME280;23691;52.486;4.650;2023-02-21T02:51:09;101949.50;;;9.39;93.44
37852;BME280;23691;52.486;4.650;2023-02-21T02:53:35;101946.94;;;9.37;93.42
37852;BME280;23691;52.486;4.650;2023-02-21T02:56:04;101948.78;;;9.37;93.47
37852;BME280;23691;52.486;4.650;2023-02-21T02:58:37;101952.28;;;9.37;93.49
37852;BME280;23691;52.486;4.650;2023-02-21T03:08:53;101957.97;;;9.44;93.56
37852;BME280;23691;52.486;4.650;2023-02-21T03:11:22;101964.31;;;9.43;93.27
37852;BME280;23691;52.486;4.650;2023-02-21T03:13:57;101954.84;;;9.39;93.33
37852;BME280;23691;52.486;4.650;2023-02-21T03:16:31;101953.16;;;9.38;93.52
37852;BME280;23691;52.486;4.650;2023-02-21T03:19:02;101952.16;;;9.39;93.19
37852;BME280;23691;52.486;4.650;2023-02-21T03:21:39;101945.72;;;9.41;93.33
37852;BME280;23691;52.486;4.650;2023-02-21T03:24:06;101941.50;;;9.39;93.10
37852;BME280;23691;52.486;4.650;2023-02-21T03:26:35;101938.25;;;9.35;93.13
37852;BME280;23691;52.486;4.650;2023-02-21T03:29:03;101941.59;;;9.37;93.54
37852;BME280;23691;52.486;4.650;2023-02-21T03:31:35;101940.66;;;9.38;93.51
37852;BME280;23691;52.486;4.650;2023-02-21T03:34:02;101936.25;;;9.37;93.49
37852;BME280;23691;52.486;4.650;2023-02-21T03:36:28;101934.59;;;9.36;93.41
37852;BME280;23691;52.486;4.650;2023-02-21T03:38:53;101938.25;;;9.35;93.47
37852;BME280;23691;52.486;4.650;2023-02-21T03:41:19;101928.25;;;9.37;93.72
37852;BME280;23691;52.486;4.650;2023-02-21T03:43:44;101929.56;;;9.43;93.29
37852;BME280;23691;52.486;4.650;2023-02-21T03:46:10;101924.91;;;9.45;93.43
37852;BME280;23691;52.486;4.650;2023-02-21T03:48:35;101914.84;;;9.49;93.37
37852;BME280;23691;52.486;4.650;2023-02-21T03:51:00;101922.72;;;9.50;93.31
37852;BME280;23691;52.486;4.650;2023-02-21T03:53:26;101928.78;;;9.52;93.33
37852;BME280;23691;52.486;4.650;2023-02-21T03:55:51;101923.31;;;9.54;93.13
37852;BME280;23691;52.486;4.650;2023-02-21T03:58:17;101917.97;;;9.54;93.19
37852;BME280;23691;52.486;4.650;2023-02-21T04:00:42;101910.94;;;9.53;93.34
37852;BME280;23691;52.486;4.650;2023-02-21T04:03:08;101922.31;;;9.55;93.32
37852;BME280;23691;52.486;4.650;2023-02-21T04:05:33;101924.97;;;9.55;93.34
37852;BME280;23691;52.486;4.650;2023-02-21T04:07:59;101925.69;;;9.57;93.40
37852;BME280;23691;52.486;4.650;2023-02-21T04:10:25;101927.16;;;9.61;93.64
37852;BME280;23691;52.486;4.650;2023-02-21T04:12:50;101930.53;;;9.63;93.05
37852;BME280;23691;52.486;4.650;2023-02-21T04:15:16;101927.03;;;9.62;92.95
37852;BME280;23691;52.486;4.650;2023-02-21T04:17:41;101926.88;;;9.64;92.98
37852;BME280;23691;52.486;4.650;2023-02-21T04:20:07;101927.59;;;9.66;93.21
37852;BME280;23691;52.486;4.650;2023-02-21T04:22:32;101932.66;;;9.69;92.94
37852;BME280;23691;52.486;4.650;2023-02-21T04:24:57;101931.00;;;9.68;92.86
37852;BME280;23691;52.486;4.650;2023-02-21T04:27:23;101930.16;;;9.67;92.80
37852;BME280;23691;52.486;4.650;2023-02-21T04:29:48;101925.66;;;9.68;92.63
37852;BME280;23691;52.486;4.650;2023-02-21T04:32:14;101932.81;;;9.67;92.48
37852;BME280;23691;52.486;4.650;2023-02-21T04:34:39;101931.38;;;9.63;92.74
37852;BME280;23691;52.486;4.650;2023-02-21T04:37:04;101922.78;;;9.60;92.60
37852;BME280;23691;52.486;4.650;2023-02-21T04:39:30;101927.53;;;9.56;92.52
37852;BME280;23691;52.486;4.650;2023-02-21T04:41:55;101938.50;;;9.53;92.65
37852;BME280;23691;52.486;4.650;2023-02-21T04:44:20;101942.41;;;9.49;92.63
37852;BME280;23691;52.486;4.650;2023-02-21T04:46:46;101950.41;;;9.49;92.90
37852;BME280;23691;52.486;4.650;2023-02-21T04:49:12;101944.22;;;9.49;92.74
37852;BME280;23691;52.486;4.650;2023-02-21T04:51:37;101941.66;;;9.47;92.66
37852;BME280;23691;52.486;4.650;2023-02-21T04:54:03;101946.06;;;9.48;92.61
37852;BME280;23691;52.486;4.650;2023-02-21T04:56:29;101940.84;;;9.46;92.42
37852;BME280;23691;52.486;4.650;2023-02-21T04:58:55;101940.09;;;9.44;92.67
37852;BME280;23691;52.486;4.650;2023-02-21T05:01:20;101942.94;;;9.43;92.66
37852;BME280;23691;52.486;4.650;2023-02-21T05:03:47;101942.06;;;9.42;92.46
37852;BME280;23691;52.486;4.650;2023-02-21T05:06:19;101942.94;;;9.43;92.69
37852;BME280;23691;52.486;4.650;2023-02-21T05:08:45;101935.03;;;9.41;92.33
37852;BME280;23691;52.486;4.650;2023-02-21T05:11:10;101933.47;;;9.39;92.55
37852;BME280;23691;52.486;4.650;2023-02-21T05:13:36;101931.66;;;9.39;92.63
37852;BME280;23691;52.486;4.650;2023-02-21T05:16:02;101934.47;;;9.38;92.59
37852;BME280;23691;52.486;4.650;2023-02-21T05:18:27;101937.13;;;9.38;92.61
37852;BME280;23691;52.486;4.650;2023-02-21T05:20:53;101942.31;;;9.39;92.49
37852;BME280;23691;52.486;4.650;2023-02-21T05:23:19;101931.78;;;9.38;92.41
37852;BME280;23691;52.486;4.650;2023-02-21T05:25:59;101939.09;;;9.36;92.43
37852;BME280;23691;52.486;4.650;2023-02-21T05:28:27;101942.72;;;9.35;92.62
37852;BME280;23691;52.486;4.650;2023-02-21T05:30:53;101947.09;;;9.36;92.79
37852;BME280;23691;52.486;4.650;2023-02-21T05:33:18;101947.94;;;9.36;92.68
37852;BME280;23691;52.486;4.650;2023-02-21T05:35:44;101945.66;;;9.32;92.77
37852;BME280;23691;52.486;4.650;2023-02-21T05:38:13;101935.97;;;9.31;93.08
37852;BME280;23691;52.486;4.650;2023-02-21T05:40:38;101926.94;;;9.32;93.05
37852;BME280;23691;52.486;4.650;2023-02-21T05:43:03;101927.06;;;9.30;93.17
37852;BME280;23691;52.486;4.650;2023-02-21T05:45:29;101928.19;;;9.28;93.04
37852;BME280;23691;52.486;4.650;2023-02-21T05:47:54;101937.31;;;9.25;93.29
37852;BME280;23691;52.486;4.650;2023-02-21T05:50:28;101933.94;;;9.23;93.41
37852;BME280;23691;52.486;4.650;2023-02-21T05:52:54;101932.94;;;9.24;93.50
37852;BME280;23691;52.486;4.650;2023-02-21T05:55:20;101931.56;;;9.30;93.19
37852;BME280;23691;52.486;4.650;2023-02-21T05:57:45;101939.59;;;9.30;93.21
37852;BME280;23691;52.486;4.650;2023-02-21T06:00:19;101941.28;;;9.31;93.50
37852;BME280;23691;52.486;4.650;2023-02-21T06:02:45;101941.28;;;9.31;93.40
37852;BME280;23691;52.486;4.650;2023-02-21T06:05:11;101939.31;;;9.33;93.17
37852;BME280;23691;52.486;4.650;2023-02-21T06:07:37;101945.38;;;9.35;92.87
37852;BME280;23691;52.486;4.650;2023-02-21T06:10:03;101948.78;;;9.37;93.37
37852;BME280;23691;52.486;4.650;2023-02-21T06:12:29;101946.72;;;9.40;93.16
37852;BME280;23691;52.486;4.650;2023-02-21T06:14:54;101949.38;;;9.40;93.13
37852;BME280;23691;52.486;4.650;2023-02-21T06:17:20;101946.81;;;9.39;93.02
37852;BME280;23691;52.486;4.650;2023-02-21T06:19:45;101946.72;;;9.40;93.05
37852;BME280;23691;52.486;4.650;2023-02-21T06:22:11;101943.16;;;9.40;93.26
37852;BME280;23691;52.486;4.650;2023-02-21T06:24:36;101943.16;;;9.40;93.18
37852;BME280;23691;52.486;4.650;2023-02-21T06:27:02;101942.22;;;9.41;93.22
37852;BME280;23691;52.486;4.650;2023-02-21T06:29:29;101946.56;;;9.42;92.95
37852;BME280;23691;52.486;4.650;2023-02-21T06:31:57;101958.81;;;9.44;92.91
37852;BME280;23691;52.486;4.650;2023-02-21T06:34:22;101956.03;;;9.46;93.02
37852;BME280;23691;52.486;4.650;2023-02-21T06:36:51;101951.53;;;9.46;93.03
37852;BME280;23691;52.486;4.650;2023-02-21T06:39:17;101950.78;;;9.44;92.72
37852;BME280;23691;52.486;4.650;2023-02-21T06:41:42;101951.06;;;9.41;92.69
37852;BME280;23691;52.486;4.650;2023-02-21T06:44:07;101962.00;;;9.38;93.05
37852;BME280;23691;52.486;4.650;2023-02-21T06:46:33;101951.44;;;9.37;93.01
37852;BME280;23691;52.486;4.650;2023-02-21T06:49:00;101951.59;;;9.35;93.07
37852;BME280;23691;52.486;4.650;2023-02-21T06:51:26;101950.50;;;9.38;93.12
37852;BME280;23691;52.486;4.650;2023-02-21T06:53:55;101948.66;;;9.38;93.07
37852;BME280;23691;52.486;4.650;2023-02-21T06:56:20;101951.31;;;9.38;92.80
37852;BME280;23691;52.486;4.650;2023-02-21T06:58:45;101947.66;;;9.39;92.83
37852;BME280;23691;52.486;4.650;2023-02-21T07:01:11;101955.84;;;9.38;92.79
37852;BME280;23691;52.486;4.650;2023-02-21T07:03:40;101959.47;;;9.37;93.14
37852;BME280;23691;52.486;4.650;2023-02-21T07:06:07;101959.47;;;9.37;92.98
37852;BME280;23691;52.486;4.650;2023-02-21T07:08:32;101955.84;;;9.38;92.93
37852;BME280;23691;52.486;4.650;2023-02-21T07:10:58;101955.84;;;9.38;92.89
37852;BME280;23691;52.486;4.650;2023-02-21T07:13:23;101971.59;;;9.41;92.68
37852;BME280;23691;52.486;4.650;2023-02-21T07:15:48;101965.41;;;9.40;93.06
37852;BME280;23691;52.486;4.650;2023-02-21T07:18:14;101963.44;;;9.42;92.90
37852;BME280;23691;52.486;4.650;2023-02-21T07:20:39;101958.22;;;9.41;92.80
37852;BME280;23691;52.486;4.650;2023-02-21T07:23:04;101959.66;;;9.45;92.82
37852;BME280;23691;52.486;4.650;2023-02-21T07:25:30;101955.91;;;9.48;92.50
37852;BME280;23691;52.486;4.650;2023-02-21T07:27:55;101955.91;;;9.48;92.64
37852;BME280;23691;52.486;4.650;2023-02-21T07:30:20;101958.16;;;9.52;92.74
37852;BME280;23691;52.486;4.650;2023-02-21T07:32:46;101955.38;;;9.54;92.72
37852;BME280;23691;52.486;4.650;2023-02-21T07:35:11;101954.38;;;9.55;92.65
37852;BME280;23691;52.486;4.650;2023-02-21T07:37:37;101950.75;;;9.56;92.52
37852;BME280;23691;52.486;4.650;2023-02-21T07:40:03;101955.69;;;9.60;92.37
37852;BME280;23691;52.486;4.650;2023-02-21T07:42:30;101960.19;;;9.60;92.54
37852;BME280;23691;52.486;4.650;2023-02-21T07:44:57;101964.56;;;9.61;92.38
37852;BME280;23691;52.486;4.650;2023-02-21T07:47:26;101963.56;;;9.62;92.24
37852;BME280;23691;52.486;4.650;2023-02-21T07:49:52;101963.72;;;9.60;92.23
37852;BME280;23691;52.486;4.650;2023-02-21T07:52:19;101967.09;;;9.62;92.29
37852;BME280;23691;52.486;4.650;2023-02-21T07:54:45;101968.78;;;9.63;92.21
37852;BME280;23691;52.486;4.650;2023-02-21T07:57:10;101973.28;;;9.63;92.51
37852;BME280;23691;52.486;4.650;2023-02-21T07:59:35;101971.56;;;9.62;92.33
37852;BME280;23691;52.486;4.650;2023-02-21T08:02:01;101967.94;;;9.63;92.26
37852;BME280;23691;52.486;4.650;2023-02-21T08:04:26;101966.94;;;9.64;92.33
37852;BME280;23691;52.486;4.650;2023-02-21T08:07:00;101959.66;;;9.66;92.23
37852;BME280;23691;52.486;4.650;2023-02-21T08:09:25;101960.50;;;9.66;92.35
37852;BME280;23691;52.486;4.650;2023-02-21T08:11:51;101966.84;;;9.65;91.86
37852;BME280;23691;52.486;4.650;2023-02-21T08:14:16;101959.66;;;9.66;92.19
37852;BME280;23691;52.486;4.650;2023-02-21T08:16:41;101966.44;;;9.70;92.17
37852;BME280;23691;52.486;4.650;2023-02-21T08:19:07;101974.91;;;9.75;91.80
37852;BME280;23691;52.486;4.650;2023-02-21T08:21:33;101970.41;;;9.76;91.84
37852;BME280;23691;52.486;4.650;2023-02-21T08:23:58;101972.09;;;9.77;91.90
37852;BME280;23691;52.486;4.650;2023-02-21T08:26:24;101970.97;;;9.79;91.69
37852;BME280;23691;52.486;4.650;2023-02-21T08:28:49;101974.38;;;9.81;91.66
37852;BME280;23691;52.486;4.650;2023-02-21T08:31:15;101966.09;;;9.84;91.82
37852;BME280;23691;52.486;4.650;2023-02-21T08:33:40;101971.03;;;9.89;91.80
37852;BME280;23691;52.486;4.650;2023-02-21T08:36:06;101967.25;;;9.92;91.44
37852;BME280;23691;52.486;4.650;2023-02-21T08:38:31;101972.19;;;9.96;91.45
37852;BME280;23691;52.486;4.650;2023-02-21T08:40:56;101964.91;;;9.98;91.40
37852;BME280;23691;52.486;4.650;2023-02-21T08:43:23;101962.09;;;10.00;91.28
37852;BME280;23691;52.486;4.650;2023-02-21T08:45:48;101967.06;;;10.04;91.33
37852;BME280;23691;52.486;4.650;2023-02-21T08:48:14;101966.63;;;10.09;91.07
37852;BME280;23691;52.486;4.650;2023-02-21T08:50:39;101969.19;;;10.10;90.99
37852;BME280;23691;52.486;4.650;2023-02-21T08:53:04;101963.56;;;10.14;91.09
37852;BME280;23691;52.486;4.650;2023-02-21T08:55:30;101963.44;;;10.15;90.78
37852;BME280;23691;52.486;4.650;2023-02-21T08:57:55;101962.31;;;10.18;90.56
37852;BME280;23691;52.486;4.650;2023-02-21T09:00:22;101970.22;;;10.19;90.82
37852;BME280;23691;52.486;4.650;2023-02-21T09:02:49;101959.25;;;10.22;90.51
37852;BME280;23691;52.486;4.650;2023-02-21T09:05:18;101965.16;;;10.26;90.55
37852;BME280;23691;52.486;4.650;2023-02-21T09:07:47;101967.19;;;10.34;90.27
37852;BME280;23691;52.486;4.650;2023-02-21T09:10:12;101966.22;;;10.35;90.01
37852;BME280;23691;52.486;4.650;2023-02-21T09:12:37;101962.53;;;10.36;89.99
37852;BME280;23691;52.486;4.650;2023-02-21T09:15:04;101965.22;;;10.36;90.05
37852;BME280;23691;52.486;4.650;2023-02-21T09:17:30;101959.75;;;10.37;89.97
37852;BME280;23691;52.486;4.650;2023-02-21T09:20:00;101952.44;;;10.39;89.68
37852;BME280;23691;52.486;4.650;2023-02-21T09:22:29;101959.06;;;10.45;89.70
37852;BME280;23691;52.486;4.650;2023-02-21T09:24:56;101950.91;;;10.46;89.71
37852;BME280;23691;52.486;4.650;2023-02-21T09:27:21;101956.97;;;10.48;89.20
37852;BME280;23691;52.486;4.650;2023-02-21T09:30:05;101952.19;;;10.52;89.47
37852;BME280;23691;52.486;4.650;2023-02-21T09:32:31;101948.25;;;10.56;89.49
37852;BME280;23691;52.486;4.650;2023-02-21T09:34:57;101944.31;;;10.60;88.90
37852;BME280;23691;52.486;4.650;2023-02-21T09:37:23;101944.06;;;10.63;88.55
37852;BME280;23691;52.486;4.650;2023-02-21T09:39:48;101938.69;;;10.63;88.65
37852;BME280;23691;52.486;4.650;2023-02-21T09:42:16;101927.84;;;10.65;88.42
37852;BME280;23691;52.486;4.650;2023-02-21T09:44:42;101927.31;;;10.71;88.42
37852;BME280;23691;52.486;4.650;2023-02-21T09:47:14;101924.88;;;10.78;88.39
37852;BME280;23691;52.486;4.650;2023-02-21T09:49:42;101922.50;;;10.84;87.91
37852;BME280;23691;52.486;4.650;2023-02-21T09:52:30;101926.44;;;10.90;87.70
37852;BME280;23691;52.486;4.650;2023-02-21T09:54:59;101932.50;;;10.92;87.62
37852;BME280;23691;52.486;4.650;2023-02-21T09:57:25;101926.03;;;10.94;87.49
37852;BME280;23691;52.486;4.650;2023-02-21T09:59:51;101928.72;;;10.94;87.53
37852;BME280;23691;52.486;4.650;2023-02-21T10:08:09;101928.59;;;10.96;87.05
37852;BME280;23691;52.486;4.650;2023-02-21T10:10:44;101926.31;;;11.01;86.74
37852;BME280;23691;52.486;4.650;2023-02-21T10:13:38;101926.31;;;11.01;86.59
37852;BME280;23691;52.486;4.650;2023-02-21T10:16:23;101924.66;;;11.00;86.36
37852;BME280;23691;52.486;4.650;2023-02-21T10:19:06;101925.06;;;11.05;86.22
37852;BME280;23691;52.486;4.650;2023-02-21T10:21:37;101923.34;;;11.04;86.19
37852;BME280;23691;52.486;4.650;2023-02-21T10:24:18;101930.84;;;11.10;85.87
37852;BME280;23691;52.486;4.650;2023-02-21T10:26:52;101931.38;;;11.14;85.61
37852;BME280;23691;52.486;4.650;2023-02-21T10:29:24;101933.78;;;11.17;85.81
37852;BME280;23691;52.486;4.650;2023-02-21T10:31:56;101936.19;;;11.20;85.30
37852;BME280;23691;52.486;4.650;2023-02-21T10:34:28;101929.84;;;11.11;85.19
37852;BME280;23691;52.486;4.650;2023-02-21T10:36:55;101931.69;;;11.11;85.18
37852;BME280;23691;52.486;4.650;2023-02-21T10:39:33;101929.41;;;11.16;85.11
37852;BME280;23691;52.486;4.650;2023-02-21T10:42:00;101926.88;;;11.24;85.16
37852;BME280;23691;52.486;4.650;2023-02-21T10:44:29;101929.53;;;11.34;84.98
37852;BME280;23691;52.486;4.650;2023-02-21T10:47:18;101928.97;;;11.40;84.78
37852;BME280;23691;52.486;4.650;2023-02-21T10:50:07;101929.81;;;11.41;84.43
37852;BME280;23691;52.486;4.650;2023-02-21T10:52:38;101925.47;;;11.39;84.26
37852;BME280;23691;52.486;4.650;2023-02-21T10:55:17;101928.69;;;11.43;84.43
37852;BME280;23691;52.486;4.650;2023-02-21T10:57:45;101924.16;;;11.44;84.01
37852;BME280;23691;52.486;4.650;2023-02-21T11:00:24;101920.06;;;11.49;83.91
37852;BME280;23691;52.486;4.650;2023-02-21T11:02:56;101929.81;;;11.50;83.72
37852;BME280;23691;52.486;4.650;2023-02-21T11:05:27;101926.81;;;11.53;83.67
37852;BME280;23691;52.486;4.650;2023-02-21T11:08:04;101924.16;;;11.53;83.29
37852;BME280;23691;52.486;4.650;2023-02-21T11:10:41;101928.53;;;11.54;83.52
37852;BME280;23691;52.486;4.650;2023-02-21T11:13:20;101917.94;;;11.53;83.20
37852;BME280;23691;52.486;4.650;2023-02-21T11:15:47;101927.13;;;11.50;83.13
37852;BME280;23691;52.486;4.650;2023-02-21T11:18:14;101927.66;;;11.54;83.10
37852;BME280;23691;52.486;4.650;2023-02-21T11:20:40;101926.81;;;11.53;83.08
37852;BME280;23691;52.486;4.650;2023-02-21T11:23:26;101928.66;;;11.53;83.17
37852;BME280;23691;52.486;4.650;2023-02-21T11:26:06;101914.56;;;11.51;83.11
37852;BME280;23691;52.486;4.650;2023-02-21T11:28:39;101919.09;;;11.50;83.22
37852;BME280;23691;52.486;4.650;2023-02-21T11:31:12;101926.41;;;11.48;83.20
37852;BME280;23691;52.486;4.650;2023-02-21T11:33:41;101922.06;;;11.47;83.01
37852;BME280;23691;52.486;4.650;2023-02-21T11:36:17;101922.06;;;11.37;82.66
37852;BME280;23691;52.486;4.650;2023-02-21T11:38:57;101919.81;;;11.33;83.03
37852;BME280;23691;52.486;4.650;2023-02-21T11:41:47;101914.47;;;11.33;83.21
37852;BME280;23691;52.486;4.650;2023-02-21T11:44:23;101922.63;;;11.31;82.98
37852;BME280;23691;52.486;4.650;2023-02-21T11:52:20;101909.41;;;11.20;82.79
37852;BME280;23691;52.486;4.650;2023-02-21T11:54:46;101911.22;;;11.20;83.19
37852;BME280;23691;52.486;4.650;2023-02-21T11:57:24;101906.03;;;11.18;83.23
37852;BME280;23691;52.486;4.650;2023-02-21T12:13:53;101900.69;;;10.99;83.71
37852;BME280;23691;52.486;4.650;2023-02-21T12:27:44;101886.28;;;10.90;84.71
37852;BME280;23691;52.486;4.650;2023-02-21T12:41:53;101876.88;;;10.86;84.79
37852;BME280;23691;52.486;4.650;2023-02-21T12:47:20;101876.28;;;10.82;84.81
37852;BME280;23691;52.486;4.650;2023-02-21T12:50:00;101870.81;;;10.74;84.58
37852;BME280;23691;52.486;4.650;2023-02-21T12:52:31;101866.72;;;10.70;84.66
37852;BME280;23691;52.486;4.650;2023-02-21T12:55:17;101864.88;;;10.70;84.74
37852;BME280;23691;52.486;4.650;2023-02-21T13:00:37;101882.63;;;10.62;84.99
37852;BME280;23691;52.486;4.650;2023-02-21T13:06:33;101867.97;;;10.56;85.17
37852;BME280;23691;52.486;4.650;2023-02-21T13:11:36;101875.84;;;10.58;85.47
37852;BME280;23691;52.486;4.650;2023-02-21T13:14:09;101867.97;;;10.56;85.28
37852;BME280;23691;52.486;4.650;2023-02-21T13:16:36;101865.16;;;10.58;85.33
37852;BME280;23691;52.486;4.650;2023-02-21T13:19:05;101863.78;;;10.63;85.56
37852;BME280;23691;52.486;4.650;2023-02-21T13:21:53;101865.72;;;10.61;85.54
37852;BME280;23691;52.486;4.650;2023-02-21T13:30:16;101862.63;;;10.46;86.22
37852;BME280;23691;52.486;4.650;2023-02-21T13:32:58;101864.16;;;10.39;86.28
37852;BME280;23691;52.486;4.650;2023-02-21T13:35:29;101859.94;;;10.37;86.40
37852;BME280;23691;52.486;4.650;2023-02-21T13:37:56;101857.25;;;10.37;86.58
37852;BME280;23691;52.486;4.650;2023-02-21T13:40:48;101845.84;;;10.35;86.78
37852;BME280;23691;52.486;4.650;2023-02-21T13:43:23;101854.00;;;10.33;86.87
37852;BME280;23691;52.486;4.650;2023-02-21T13:45:49;101841.16;;;10.27;87.01
37852;BME280;23691;52.486;4.650;2023-02-21T13:48:23;101842.28;;;10.24;87.30
37852;BME280;23691;52.486;4.650;2023-02-21T13:50:51;101841.28;;;10.25;87.36
37852;BME280;23691;52.486;4.650;2023-02-21T13:53:21;101846.63;;;10.25;87.42
37852;BME280;23691;52.486;4.650;2023-02-21T13:58:43;101849.72;;;10.21;87.52
37852;BME280;23691;52.486;4.650;2023-02-21T14:03:39;101845.22;;;10.12;87.91
37852;BME280;23691;52.486;4.650;2023-02-21T14:09:09;101840.53;;;10.14;88.13
37852;BME280;23691;52.486;4.650;2023-02-21T14:11:41;101839.69;;;10.03;88.17
37852;BME280;23691;52.486;4.650;2023-02-21T14:14:29;101836.16;;;10.03;88.47
37852;BME280;23691;52.486;4.650;2023-02-21T14:19:41;101837.28;;;10.00;88.58
37852;BME280;23691;52.486;4.650;2023-02-21T14:22:23;101836.16;;;10.03;88.74
37852;BME280;23691;52.486;4.650;2023-02-21T14:25:02;101835.16;;;10.04;88.91
37852;BME280;23691;52.486;4.650;2023-02-21T14:32:43;101827.00;;;9.96;89.05
37852;BME280;23691;52.486;4.650;2023-02-21T14:35:42;101826.00;;;9.97;88.99
37852;BME280;23691;52.486;4.650;2023-02-21T14:38:22;101827.72;;;9.98;88.95
37852;BME280;23691;52.486;4.650;2023-02-21T14:41:00;101829.78;;;9.94;88.95
37852;BME280;23691;52.486;4.650;2023-02-21T14:43:52;101834.75;;;9.99;88.75
37852;BME280;23691;52.486;4.650;2023-02-21T14:47:06;101820.94;;;9.94;88.79
37852;BME280;23691;52.486;4.650;2023-02-21T14:57:49;101818.34;;;9.73;89.14
37852;BME280;23691;52.486;4.650;2023-02-21T15:00:24;101814.84;;;9.72;89.33
37852;BME280;23691;52.486;4.650;2023-02-21T15:06:00;101811.06;;;9.75;89.30
37852;BME280;23691;52.486;4.650;2023-02-21T15:08:27;101810.47;;;9.71;89.22
37852;BME280;23691;52.486;4.650;2023-02-21T15:10:57;101813.97;;;9.72;89.28
37852;BME280;23691;52.486;4.650;2023-02-21T15:13:26;101815.81;;;9.71;89.27
37852;BME280;23691;52.486;4.650;2023-02-21T15:16:08;101816.81;;;9.70;89.15
37852;BME280;23691;52.486;4.650;2023-02-21T15:18:55;101823.94;;;9.60;89.10
37852;BME280;23691;52.486;4.650;2023-02-21T15:21:21;101817.44;;;9.53;89.35
37852;BME280;23691;52.486;4.650;2023-02-21T15:24:10;101813.06;;;9.52;89.40
37852;BME280;23691;52.486;4.650;2023-02-21T15:26:37;101822.34;;;9.48;89.46
37852;BME280;23691;52.486;4.650;2023-02-21T15:29:06;101818.78;;;9.47;89.48
37852;BME280;23691;52.486;4.650;2023-02-21T15:31:43;101816.84;;;9.49;89.76
37852;BME280;23691;52.486;4.650;2023-02-21T15:36:47;101811.66;;;9.48;89.20